Terminal Aerodrome Forecast
Issued by NWS Tulsa, OK

Home | Current Version | Previous Version | Text Only | Print | Product List | Glossary On
Versions: 1 2 3 4 5 6 7 8 9 10 11 12 13
000
FTUS44 KTSA 251134
TAFTUL
TAF
KTUL 251134Z 2512/2612 34010KT 6SM -SHRA OVC025
     FM251500 35012KT 5SM -SHRA BR OVC007
     FM252100 35010KT 6SM -SHRA OVC012
     FM260200 33007KT P6SM OVC012=

USA.gov is the U.S. government's official web portal to all federal, state and local government web resources and services.